LiveATC.Net - Listen to live air traffic control over the Internet!


ICAO: LTFJ  IATA: SAW   Airport: Istanbul Sabiha Gokcen International Airport
City: Istanbul
Country: Turkey   Continent: Europe
LTFJ METAR Weather: LTFJ 140820Z 05016KT 9999 SCT035 31/18 Q1010 NOSIG
LTFJ ADS-B Flight Tracking  (ADSBExchange)
LTFJ Flight Activity (FlightAware)

LTFJ Del/Gnd/Twr
Feed Status: UP   Listeners: 0
Listen in your browser - HTML5 player (in browser, HTML5)
Click here to listen with your own player (launches your MP3 player)
Archive Access: LTFJ Del/Gnd/Twr
FacilityFrequency
Gokcen Clearance Delivery122.625
Gokcen Ground121.750
Gokcen Tower118.800
Gokcen Tower (West)120.925
Pegasus Dispatch131.750

NOTICE

Unauthorized use prohibited. See LiveATC.net Terms of Service


Airport/ARTCC Code
Frequency Search
(e.g., 124.400, 128.75)
Site-wide search
 


Browse Feeds
Top 50 Feeds
HF Oceanic Feeds
Coverage Map
Bad Weather Areas

LiveATC FAQ

Increase Coverage

Contact LiveATC.net
Press Inquiries

LiveATC on iPhone
LiveATC on Android

LiveATC Mobile
(Mobile browser)

ATC Audio Archives
Interesting Recordings

LiveATC Forums


Home Page
About LiveATC.net


Terms of Use
Privacy Policy

AIRMETs/SIGMETs

FAA Airport Status
NAS Status
Arrival Demand


Server Software By:
Icecast.org
Liquidsoap